sensor_id;sensor_type;location;lat;lon;timestamp;P1;durP1;ratioP1;P2;durP2;ratioP2
54511;SDS011;40419;47.438;19.026;2022-08-19T00:00:41;3.92;;;1.02;;
54511;SDS011;40419;47.438;19.026;2022-08-19T00:03:09;1.27;;;0.63;;
54511;SDS011;40419;47.438;19.026;2022-08-19T00:05:42;1.02;;;0.80;;
54511;SDS011;40419;47.438;19.026;2022-08-19T00:08:08;0.98;;;0.68;;
54511;SDS011;40419;47.438;19.026;2022-08-19T00:10:33;1.98;;;1.02;;
54511;SDS011;40419;47.438;19.026;2022-08-19T00:13:01;1.00;;;0.80;;
54511;SDS011;40419;47.438;19.026;2022-08-19T00:15:29;0.93;;;0.77;;
54511;SDS011;40419;47.438;19.026;2022-08-19T00:18:00;1.48;;;0.85;;
54511;SDS011;40419;47.438;19.026;2022-08-19T00:20:28;1.42;;;1.10;;
54511;SDS011;40419;47.438;19.026;2022-08-19T00:22:53;3.47;;;1.75;;
54511;SDS011;40419;47.438;19.026;2022-08-19T00:25:19;1.40;;;0.82;;
54511;SDS011;40419;47.438;19.026;2022-08-19T00:27:45;1.00;;;0.88;;
54511;SDS011;40419;47.438;19.026;2022-08-19T00:30:10;0.88;;;0.82;;
54511;SDS011;40419;47.438;19.026;2022-08-19T00:32:37;1.58;;;0.77;;
54511;SDS011;40419;47.438;19.026;2022-08-19T00:35:02;1.45;;;0.75;;
54511;SDS011;40419;47.438;19.026;2022-08-19T00:37:33;1.10;;;0.82;;
54511;SDS011;40419;47.438;19.026;2022-08-19T00:40:02;1.65;;;0.93;;
54511;SDS011;40419;47.438;19.026;2022-08-19T00:42:31;1.27;;;1.10;;
54511;SDS011;40419;47.438;19.026;2022-08-19T00:44:57;0.93;;;0.47;;
54511;SDS011;40419;47.438;19.026;2022-08-19T00:47:28;1.65;;;0.80;;
54511;SDS011;40419;47.438;19.026;2022-08-19T00:49:56;2.28;;;1.17;;
54511;SDS011;40419;47.438;19.026;2022-08-19T00:52:29;0.98;;;0.77;;
54511;SDS011;40419;47.438;19.026;2022-08-19T00:55:02;1.60;;;1.15;;
54511;SDS011;40419;47.438;19.026;2022-08-19T00:57:32;0.50;;;0.50;;
54511;SDS011;40419;47.438;19.026;2022-08-19T01:00:08;1.27;;;0.90;;
54511;SDS011;40419;47.438;19.026;2022-08-19T01:02:37;0.85;;;0.85;;
54511;SDS011;40419;47.438;19.026;2022-08-19T01:05:09;1.47;;;1.03;;
54511;SDS011;40419;47.438;19.026;2022-08-19T01:07:38;1.45;;;0.98;;
54511;SDS011;40419;47.438;19.026;2022-08-19T01:10:12;0.75;;;0.75;;
54511;SDS011;40419;47.438;19.026;2022-08-19T01:12:45;1.48;;;0.95;;
54511;SDS011;40419;47.438;19.026;2022-08-19T01:15:14;0.88;;;0.88;;
54511;SDS011;40419;47.438;19.026;2022-08-19T01:17:42;1.17;;;0.75;;
54511;SDS011;40419;47.438;19.026;2022-08-19T01:20:10;1.10;;;0.57;;
54511;SDS011;40419;47.438;19.026;2022-08-19T01:22:46;1.55;;;1.10;;
54511;SDS011;40419;47.438;19.026;2022-08-19T01:25:18;1.20;;;0.93;;
54511;SDS011;40419;47.438;19.026;2022-08-19T01:27:50;2.40;;;0.82;;
54511;SDS011;40419;47.438;19.026;2022-08-19T01:30:21;1.83;;;0.80;;
54511;SDS011;40419;47.438;19.026;2022-08-19T01:32:57;1.85;;;0.80;;
54511;SDS011;40419;47.438;19.026;2022-08-19T01:35:26;1.35;;;0.90;;
54511;SDS011;40419;47.438;19.026;2022-08-19T01:38:05;1.25;;;0.75;;
54511;SDS011;40419;47.438;19.026;2022-08-19T01:40:36;5.53;;;1.35;;
54511;SDS011;40419;47.438;19.026;2022-08-19T01:43:04;0.60;;;0.60;;
54511;SDS011;40419;47.438;19.026;2022-08-19T01:45:33;4.55;;;1.15;;
54511;SDS011;40419;47.438;19.026;2022-08-19T01:48:01;0.63;;;0.38;;
54511;SDS011;40419;47.438;19.026;2022-08-19T01:50:35;0.90;;;0.63;;
54511;SDS011;40419;47.438;19.026;2022-08-19T01:53:02;2.88;;;1.27;;
54511;SDS011;40419;47.438;19.026;2022-08-19T01:55:30;0.93;;;0.82;;
54511;SDS011;40419;47.438;19.026;2022-08-19T01:58:00;0.98;;;0.93;;
54511;SDS011;40419;47.438;19.026;2022-08-19T02:00:30;1.35;;;0.98;;
54511;SDS011;40419;47.438;19.026;2022-08-19T02:02:59;1.20;;;0.65;;
54511;SDS011;40419;47.438;19.026;2022-08-19T02:05:28;2.35;;;1.02;;
54511;SDS011;40419;47.438;19.026;2022-08-19T02:07:59;0.43;;;0.43;;
54511;SDS011;40419;47.438;19.026;2022-08-19T02:10:28;1.38;;;0.73;;
54511;SDS011;40419;47.438;19.026;2022-08-19T02:12:59;1.02;;;0.75;;
54511;SDS011;40419;47.438;19.026;2022-08-19T02:15:30;1.63;;;0.90;;
54511;SDS011;40419;47.438;19.026;2022-08-19T02:17:58;1.02;;;0.90;;
54511;SDS011;40419;47.438;19.026;2022-08-19T02:20:26;1.10;;;0.80;;
54511;SDS011;40419;47.438;19.026;2022-08-19T02:22:56;0.77;;;0.75;;
54511;SDS011;40419;47.438;19.026;2022-08-19T02:25:22;1.70;;;1.30;;
54511;SDS011;40419;47.438;19.026;2022-08-19T02:27:52;2.13;;;1.15;;
54511;SDS011;40419;47.438;19.026;2022-08-19T02:30:19;0.80;;;0.80;;
54511;SDS011;40419;47.438;19.026;2022-08-19T02:32:45;2.25;;;0.98;;
54511;SDS011;40419;47.438;19.026;2022-08-19T02:35:18;1.67;;;1.15;;
54511;SDS011;40419;47.438;19.026;2022-08-19T02:37:44;1.75;;;1.38;;
54511;SDS011;40419;47.438;19.026;2022-08-19T02:40:31;1.10;;;0.98;;
54511;SDS011;40419;47.438;19.026;2022-08-19T02:43:04;2.47;;;1.08;;
54511;SDS011;40419;47.438;19.026;2022-08-19T02:45:38;3.15;;;0.60;;
54511;SDS011;40419;47.438;19.026;2022-08-19T02:48:07;1.23;;;0.70;;
54511;SDS011;40419;47.438;19.026;2022-08-19T02:50:40;1.40;;;0.80;;
54511;SDS011;40419;47.438;19.026;2022-08-19T02:53:11;2.10;;;1.25;;
54511;SDS011;40419;47.438;19.026;2022-08-19T02:55:45;2.00;;;1.08;;
54511;SDS011;40419;47.438;19.026;2022-08-19T02:58:14;1.55;;;1.15;;
54511;SDS011;40419;47.438;19.026;2022-08-19T03:00:46;1.95;;;0.90;;
54511;SDS011;40419;47.438;19.026;2022-08-19T03:03:16;1.05;;;0.80;;
54511;SDS011;40419;47.438;19.026;2022-08-19T03:05:43;1.70;;;0.80;;
54511;SDS011;40419;47.438;19.026;2022-08-19T03:08:12;0.65;;;0.47;;
54511;SDS011;40419;47.438;19.026;2022-08-19T03:10:40;1.95;;;0.65;;
54511;SDS011;40419;47.438;19.026;2022-08-19T03:13:16;0.60;;;0.52;;
54511;SDS011;40419;47.438;19.026;2022-08-19T03:15:43;1.70;;;0.82;;
54511;SDS011;40419;47.438;19.026;2022-08-19T03:18:14;1.48;;;0.60;;
54511;SDS011;40419;47.438;19.026;2022-08-19T03:20:47;2.20;;;1.27;;
54511;SDS011;40419;47.438;19.026;2022-08-19T03:23:20;0.98;;;0.40;;
54511;SDS011;40419;47.438;19.026;2022-08-19T03:25:51;1.17;;;0.85;;
54511;SDS011;40419;47.438;19.026;2022-08-19T03:28:23;1.25;;;1.05;;
54511;SDS011;40419;47.438;19.026;2022-08-19T03:31:01;1.88;;;1.42;;
54511;SDS011;40419;47.438;19.026;2022-08-19T03:33:40;0.55;;;0.55;;
54511;SDS011;40419;47.438;19.026;2022-08-19T03:36:10;1.38;;;1.20;;
54511;SDS011;40419;47.438;19.026;2022-08-19T03:38:41;2.60;;;1.45;;
54511;SDS011;40419;47.438;19.026;2022-08-19T03:41:13;1.23;;;0.85;;
54511;SDS011;40419;47.438;19.026;2022-08-19T03:43:43;1.27;;;0.73;;
54511;SDS011;40419;47.438;19.026;2022-08-19T03:46:13;1.83;;;1.20;;
54511;SDS011;40419;47.438;19.026;2022-08-19T03:48:41;1.65;;;0.80;;
54511;SDS011;40419;47.438;19.026;2022-08-19T03:51:15;3.40;;;1.23;;
54511;SDS011;40419;47.438;19.026;2022-08-19T03:53:46;1.02;;;0.90;;
54511;SDS011;40419;47.438;19.026;2022-08-19T03:56:12;1.52;;;0.88;;
54511;SDS011;40419;47.438;19.026;2022-08-19T03:58:42;1.02;;;0.90;;
54511;SDS011;40419;47.438;19.026;2022-08-19T04:01:12;1.38;;;0.90;;
54511;SDS011;40419;47.438;19.026;2022-08-19T04:03:40;0.70;;;0.68;;
54511;SDS011;40419;47.438;19.026;2022-08-19T04:06:13;1.13;;;0.63;;
54511;SDS011;40419;47.438;19.026;2022-08-19T04:08:40;1.63;;;1.00;;
54511;SDS011;40419;47.438;19.026;2022-08-19T04:11:11;1.00;;;0.73;;
54511;SDS011;40419;47.438;19.026;2022-08-19T04:13:41;2.03;;;1.52;;
54511;SDS011;40419;47.438;19.026;2022-08-19T04:16:08;2.05;;;0.85;;
54511;SDS011;40419;47.438;19.026;2022-08-19T04:18:38;3.22;;;1.63;;
54511;SDS011;40419;47.438;19.026;2022-08-19T04:21:05;2.08;;;1.10;;
54511;SDS011;40419;47.438;19.026;2022-08-19T04:23:32;1.20;;;1.05;;
54511;SDS011;40419;47.438;19.026;2022-08-19T04:26:03;1.48;;;0.82;;
54511;SDS011;40419;47.438;19.026;2022-08-19T04:28:28;2.03;;;1.15;;
54511;SDS011;40419;47.438;19.026;2022-08-19T04:31:01;2.10;;;0.90;;
54511;SDS011;40419;47.438;19.026;2022-08-19T04:33:27;1.83;;;1.08;;
54511;SDS011;40419;47.438;19.026;2022-08-19T04:35:55;1.17;;;0.88;;
54511;SDS011;40419;47.438;19.026;2022-08-19T04:38:23;3.35;;;1.23;;
54511;SDS011;40419;47.438;19.026;2022-08-19T04:40:50;1.25;;;0.98;;
54511;SDS011;40419;47.438;19.026;2022-08-19T04:43:37;0.55;;;0.55;;
54511;SDS011;40419;47.438;19.026;2022-08-19T04:46:07;0.90;;;0.68;;
54511;SDS011;40419;47.438;19.026;2022-08-19T04:51:10;0.68;;;0.47;;
54511;SDS011;40419;47.438;19.026;2022-08-19T04:53:41;1.67;;;1.13;;
54511;SDS011;40419;47.438;19.026;2022-08-19T04:56:13;0.95;;;0.88;;
54511;SDS011;40419;47.438;19.026;2022-08-19T04:58:44;1.05;;;0.70;;
54511;SDS011;40419;47.438;19.026;2022-08-19T05:01:19;1.60;;;0.95;;
54511;SDS011;40419;47.438;19.026;2022-08-19T05:03:49;1.70;;;0.88;;
54511;SDS011;40419;47.438;19.026;2022-08-19T05:06:18;1.27;;;0.73;;
54511;SDS011;40419;47.438;19.026;2022-08-19T05:08:47;2.47;;;1.10;;
54511;SDS011;40419;47.438;19.026;2022-08-19T05:11:15;2.42;;;0.85;;
54511;SDS011;40419;47.438;19.026;2022-08-19T05:13:48;1.33;;;0.95;;
54511;SDS011;40419;47.438;19.026;2022-08-19T05:16:14;1.15;;;0.77;;
54511;SDS011;40419;47.438;19.026;2022-08-19T05:18:43;1.63;;;1.10;;
54511;SDS011;40419;47.438;19.026;2022-08-19T05:21:32;2.15;;;1.67;;
54511;SDS011;40419;47.438;19.026;2022-08-19T05:24:19;1.13;;;0.68;;
54511;SDS011;40419;47.438;19.026;2022-08-19T05:29:18;2.75;;;0.70;;
54511;SDS011;40419;47.438;19.026;2022-08-19T05:31:46;1.25;;;1.00;;
54511;SDS011;40419;47.438;19.026;2022-08-19T05:34:15;3.30;;;1.05;;
54511;SDS011;40419;47.438;19.026;2022-08-19T05:36:46;1.40;;;0.75;;
54511;SDS011;40419;47.438;19.026;2022-08-19T05:39:19;1.30;;;1.15;;
54511;SDS011;40419;47.438;19.026;2022-08-19T05:41:50;0.70;;;0.60;;
54511;SDS011;40419;47.438;19.026;2022-08-19T05:44:18;1.50;;;1.00;;
54511;SDS011;40419;47.438;19.026;2022-08-19T05:46:45;2.33;;;0.75;;
54511;SDS011;40419;47.438;19.026;2022-08-19T05:49:15;2.78;;;1.25;;
54511;SDS011;40419;47.438;19.026;2022-08-19T05:51:46;0.85;;;0.85;;
54511;SDS011;40419;47.438;19.026;2022-08-19T05:54:12;1.65;;;0.95;;
54511;SDS011;40419;47.438;19.026;2022-08-19T05:56:40;0.28;;;0.20;;
54511;SDS011;40419;47.438;19.026;2022-08-19T05:59:11;0.95;;;0.77;;
54511;SDS011;40419;47.438;19.026;2022-08-19T06:01:39;0.90;;;0.80;;
54511;SDS011;40419;47.438;19.026;2022-08-19T06:04:06;1.50;;;0.88;;
54511;SDS011;40419;47.438;19.026;2022-08-19T06:06:35;0.38;;;0.38;;
54511;SDS011;40419;47.438;19.026;2022-08-19T06:09:02;1.02;;;0.82;;
54511;SDS011;40419;47.438;19.026;2022-08-19T06:11:41;1.00;;;0.77;;
54511;SDS011;40419;47.438;19.026;2022-08-19T06:14:13;1.50;;;0.95;;
54511;SDS011;40419;47.438;19.026;2022-08-19T06:16:46;0.63;;;0.60;;
54511;SDS011;40419;47.438;19.026;2022-08-19T06:19:15;0.98;;;0.80;;
54511;SDS011;40419;47.438;19.026;2022-08-19T06:21:43;0.95;;;0.60;;
54511;SDS011;40419;47.438;19.026;2022-08-19T06:24:14;1.65;;;0.90;;
54511;SDS011;40419;47.438;19.026;2022-08-19T06:26:44;1.00;;;0.93;;
54511;SDS011;40419;47.438;19.026;2022-08-19T06:29:17;2.17;;;1.10;;
54511;SDS011;40419;47.438;19.026;2022-08-19T06:31:48;3.38;;;0.90;;
54511;SDS011;40419;47.438;19.026;2022-08-19T06:34:15;1.85;;;0.82;;
54511;SDS011;40419;47.438;19.026;2022-08-19T06:36:41;6.00;;;0.95;;
54511;SDS011;40419;47.438;19.026;2022-08-19T06:39:11;1.23;;;0.55;;
54511;SDS011;40419;47.438;19.026;2022-08-19T06:41:44;0.98;;;0.55;;
54511;SDS011;40419;47.438;19.026;2022-08-19T06:44:16;1.40;;;0.45;;
54511;SDS011;40419;47.438;19.026;2022-08-19T06:46:42;0.45;;;0.45;;
54511;SDS011;40419;47.438;19.026;2022-08-19T06:49:08;0.70;;;0.70;;
54511;SDS011;40419;47.438;19.026;2022-08-19T06:51:41;0.40;;;0.30;;
54511;SDS011;40419;47.438;19.026;2022-08-19T06:54:10;1.70;;;1.02;;
54511;SDS011;40419;47.438;19.026;2022-08-19T06:56:38;1.92;;;0.98;;
54511;SDS011;40419;47.438;19.026;2022-08-19T06:59:05;0.25;;;0.25;;
54511;SDS011;40419;47.438;19.026;2022-08-19T07:01:37;3.22;;;1.13;;
54511;SDS011;40419;47.438;19.026;2022-08-19T07:04:08;0.60;;;0.60;;
54511;SDS011;40419;47.438;19.026;2022-08-19T07:06:34;1.08;;;0.93;;
54511;SDS011;40419;47.438;19.026;2022-08-19T07:09:10;1.08;;;1.00;;
54511;SDS011;40419;47.438;19.026;2022-08-19T07:11:43;1.15;;;0.95;;
54511;SDS011;40419;47.438;19.026;2022-08-19T07:14:14;0.98;;;0.77;;
54511;SDS011;40419;47.438;19.026;2022-08-19T07:16:47;0.77;;;0.60;;
54511;SDS011;40419;47.438;19.026;2022-08-19T07:19:18;1.17;;;0.57;;
54511;SDS011;40419;47.438;19.026;2022-08-19T07:21:45;0.47;;;0.47;;
54511;SDS011;40419;47.438;19.026;2022-08-19T07:24:16;0.88;;;0.63;;
54511;SDS011;40419;47.438;19.026;2022-08-19T07:26:47;4.22;;;1.33;;
54511;SDS011;40419;47.438;19.026;2022-08-19T07:29:18;2.65;;;0.82;;
54511;SDS011;40419;47.438;19.026;2022-08-19T07:31:47;0.93;;;0.50;;
54511;SDS011;40419;47.438;19.026;2022-08-19T07:34:14;0.73;;;0.52;;
54511;SDS011;40419;47.438;19.026;2022-08-19T07:36:41;2.03;;;0.93;;
54511;SDS011;40419;47.438;19.026;2022-08-19T07:39:09;1.40;;;0.98;;
54511;SDS011;40419;47.438;19.026;2022-08-19T07:41:40;0.57;;;0.57;;
54511;SDS011;40419;47.438;19.026;2022-08-19T07:44:09;2.72;;;0.90;;
54511;SDS011;40419;47.438;19.026;2022-08-19T07:46:39;0.88;;;0.65;;
54511;SDS011;40419;47.438;19.026;2022-08-19T07:51:34;2.13;;;0.90;;
54511;SDS011;40419;47.438;19.026;2022-08-19T07:54:04;1.10;;;0.70;;
54511;SDS011;40419;47.438;19.026;2022-08-19T07:56:31;2.05;;;0.88;;
54511;SDS011;40419;47.438;19.026;2022-08-19T07:58:57;0.93;;;0.80;;
54511;SDS011;40419;47.438;19.026;2022-08-19T08:01:24;1.00;;;0.40;;
54511;SDS011;40419;47.438;19.026;2022-08-19T08:03:57;1.65;;;0.40;;
54511;SDS011;40419;47.438;19.026;2022-08-19T08:06:41;1.27;;;0.95;;
54511;SDS011;40419;47.438;19.026;2022-08-19T08:09:28;0.68;;;0.68;;
54511;SDS011;40419;47.438;19.026;2022-08-19T08:12:00;1.42;;;0.70;;
54511;SDS011;40419;47.438;19.026;2022-08-19T08:14:31;1.73;;;0.70;;
54511;SDS011;40419;47.438;19.026;2022-08-19T08:17:03;0.88;;;0.55;;
54511;SDS011;40419;47.438;19.026;2022-08-19T08:19:30;2.97;;;0.63;;
54511;SDS011;40419;47.438;19.026;2022-08-19T08:22:00;1.48;;;0.77;;
54511;SDS011;40419;47.438;19.026;2022-08-19T08:24:27;3.40;;;1.10;;
54511;SDS011;40419;47.438;19.026;2022-08-19T08:27:02;1.35;;;0.80;;
54511;SDS011;40419;47.438;19.026;2022-08-19T08:29:30;1.63;;;0.68;;
54511;SDS011;40419;47.438;19.026;2022-08-19T08:31:58;1.65;;;0.80;;
54511;SDS011;40419;47.438;19.026;2022-08-19T08:34:24;0.85;;;0.60;;
54511;SDS011;40419;47.438;19.026;2022-08-19T08:36:49;0.68;;;0.47;;
54511;SDS011;40419;47.438;19.026;2022-08-19T08:39:20;0.77;;;0.63;;
54511;SDS011;40419;47.438;19.026;2022-08-19T08:44:22;1.17;;;0.70;;
54511;SDS011;40419;47.438;19.026;2022-08-19T08:46:55;0.65;;;0.65;;
54511;SDS011;40419;47.438;19.026;2022-08-19T08:50:28;1.17;;;0.65;;
54511;SDS011;40419;47.438;19.026;2022-08-19T08:52:36;1.95;;;1.00;;
54511;SDS011;40419;47.438;19.026;2022-08-19T08:55:12;0.40;;;0.40;;
54511;SDS011;40419;47.438;19.026;2022-08-19T09:00:31;1.52;;;0.70;;
54511;SDS011;40419;47.438;19.026;2022-08-19T09:03:03;1.45;;;0.70;;
54511;SDS011;40419;47.438;19.026;2022-08-19T09:11:39;1.35;;;0.77;;
54511;SDS011;40419;47.438;19.026;2022-08-19T09:16:40;0.85;;;0.60;;
54511;SDS011;40419;47.438;19.026;2022-08-19T09:19:08;1.38;;;0.70;;
54511;SDS011;40419;47.438;19.026;2022-08-19T09:21:34;2.88;;;1.15;;
54511;SDS011;40419;47.438;19.026;2022-08-19T09:24:03;2.15;;;0.80;;
54511;SDS011;40419;47.438;19.026;2022-08-19T09:26:30;1.58;;;1.08;;
54511;SDS011;40419;47.438;19.026;2022-08-19T09:29:00;2.03;;;0.97;;
54511;SDS011;40419;47.438;19.026;2022-08-19T09:31:29;1.15;;;0.70;;
54511;SDS011;40419;47.438;19.026;2022-08-19T09:33:57;0.85;;;0.65;;
54511;SDS011;40419;47.438;19.026;2022-08-19T09:36:30;2.45;;;0.80;;
54511;SDS011;40419;47.438;19.026;2022-08-19T09:39:00;1.20;;;0.88;;
54511;SDS011;40419;47.438;19.026;2022-08-19T09:41:34;3.08;;;1.00;;
54511;SDS011;40419;47.438;19.026;2022-08-19T09:44:04;1.77;;;1.00;;
54511;SDS011;40419;47.438;19.026;2022-08-19T09:46:30;2.20;;;1.20;;
54511;SDS011;40419;47.438;19.026;2022-08-19T09:48:58;1.20;;;0.75;;
54511;SDS011;40419;47.438;19.026;2022-08-19T09:51:27;0.70;;;0.65;;
54511;SDS011;40419;47.438;19.026;2022-08-19T09:53:58;0.93;;;0.50;;
54511;SDS011;40419;47.438;19.026;2022-08-19T09:56:26;0.73;;;0.50;;
54511;SDS011;40419;47.438;19.026;2022-08-19T09:58:52;0.82;;;0.60;;
54511;SDS011;40419;47.438;19.026;2022-08-19T10:01:23;1.25;;;0.90;;
54511;SDS011;40419;47.438;19.026;2022-08-19T10:03:55;1.75;;;1.13;;
54511;SDS011;40419;47.438;19.026;2022-08-19T10:08:49;1.52;;;0.93;;
54511;SDS011;40419;47.438;19.026;2022-08-19T10:11:18;0.55;;;0.55;;
54511;SDS011;40419;47.438;19.026;2022-08-19T10:13:45;0.70;;;0.50;;
54511;SDS011;40419;47.438;19.026;2022-08-19T10:16:12;2.63;;;1.38;;
54511;SDS011;40419;47.438;19.026;2022-08-19T10:18:43;1.05;;;0.52;;
54511;SDS011;40419;47.438;19.026;2022-08-19T10:21:15;1.90;;;0.65;;
54511;SDS011;40419;47.438;19.026;2022-08-19T10:23:48;1.25;;;0.98;;
54511;SDS011;40419;47.438;19.026;2022-08-19T10:26:19;1.23;;;0.80;;
54511;SDS011;40419;47.438;19.026;2022-08-19T10:28:55;0.65;;;0.60;;
54511;SDS011;40419;47.438;19.026;2022-08-19T10:31:24;1.10;;;0.60;;
54511;SDS011;40419;47.438;19.026;2022-08-19T10:33:55;1.15;;;0.75;;
54511;SDS011;40419;47.438;19.026;2022-08-19T10:36:26;1.40;;;0.63;;
54511;SDS011;40419;47.438;19.026;2022-08-19T10:38:55;2.28;;;1.30;;
54511;SDS011;40419;47.438;19.026;2022-08-19T10:41:28;1.23;;;0.95;;
54511;SDS011;40419;47.438;19.026;2022-08-19T10:43:56;2.08;;;1.00;;
54511;SDS011;40419;47.438;19.026;2022-08-19T10:46:24;1.85;;;1.02;;
54511;SDS011;40419;47.438;19.026;2022-08-19T10:48:54;1.27;;;0.98;;
54511;SDS011;40419;47.438;19.026;2022-08-19T10:51:25;1.02;;;0.70;;
54511;SDS011;40419;47.438;19.026;2022-08-19T10:54:09;1.25;;;0.77;;
54511;SDS011;40419;47.438;19.026;2022-08-19T10:56:38;1.50;;;1.13;;
54511;SDS011;40419;47.438;19.026;2022-08-19T10:59:25;1.33;;;0.95;;
54511;SDS011;40419;47.438;19.026;2022-08-19T11:01:58;1.80;;;1.00;;
54511;SDS011;40419;47.438;19.026;2022-08-19T11:06:53;1.25;;;0.80;;
54511;SDS011;40419;47.438;19.026;2022-08-19T11:09:21;1.83;;;1.50;;
54511;SDS011;40419;47.438;19.026;2022-08-19T11:11:57;1.17;;;0.88;;
54511;SDS011;40419;47.438;19.026;2022-08-19T11:14:23;1.23;;;1.08;;
54511;SDS011;40419;47.438;19.026;2022-08-19T11:16:56;1.65;;;1.13;;
54511;SDS011;40419;47.438;19.026;2022-08-19T11:19:27;1.30;;;1.02;;
54511;SDS011;40419;47.438;19.026;2022-08-19T11:21:55;2.25;;;2.05;;
54511;SDS011;40419;47.438;19.026;2022-08-19T11:24:24;1.88;;;1.13;;
54511;SDS011;40419;47.438;19.026;2022-08-19T11:27:00;1.13;;;0.80;;
54511;SDS011;40419;47.438;19.026;2022-08-19T11:29:31;2.08;;;1.23;;
54511;SDS011;40419;47.438;19.026;2022-08-19T11:32:07;7.15;;;1.52;;
54511;SDS011;40419;47.438;19.026;2022-08-19T11:34:34;1.92;;;1.10;;
54511;SDS011;40419;47.438;19.026;2022-08-19T11:37:05;1.30;;;0.82;;
54511;SDS011;40419;47.438;19.026;2022-08-19T11:39:31;7.93;;;1.45;;
54511;SDS011;40419;47.438;19.026;2022-08-19T11:42:02;3.37;;;2.27;;
54511;SDS011;40419;47.438;19.026;2022-08-19T11:44:50;3.97;;;2.25;;
54511;SDS011;40419;47.438;19.026;2022-08-19T11:47:16;3.53;;;2.17;;
54511;SDS011;40419;47.438;19.026;2022-08-19T11:49:45;3.22;;;2.10;;
54511;SDS011;40419;47.438;19.026;2022-08-19T11:52:14;3.50;;;2.05;;
54511;SDS011;40419;47.438;19.026;2022-08-19T11:54:40;3.10;;;2.40;;
54511;SDS011;40419;47.438;19.026;2022-08-19T11:57:06;2.58;;;1.67;;
54511;SDS011;40419;47.438;19.026;2022-08-19T11:59:31;1.67;;;1.15;;
54511;SDS011;40419;47.438;19.026;2022-08-19T12:01:57;4.20;;;2.30;;
54511;SDS011;40419;47.438;19.026;2022-08-19T12:06:54;1.38;;;1.10;;
54511;SDS011;40419;47.438;19.026;2022-08-19T12:09:20;2.17;;;1.45;;
54511;SDS011;40419;47.438;19.026;2022-08-19T12:11:47;2.85;;;1.70;;
54511;SDS011;40419;47.438;19.026;2022-08-19T12:14:12;4.05;;;1.70;;
54511;SDS011;40419;47.438;19.026;2022-08-19T12:16:43;1.65;;;1.08;;
54511;SDS011;40419;47.438;19.026;2022-08-19T12:19:10;1.80;;;1.20;;
54511;SDS011;40419;47.438;19.026;2022-08-19T12:21:40;2.15;;;1.38;;
54511;SDS011;40419;47.438;19.026;2022-08-19T12:24:08;1.20;;;0.98;;
54511;SDS011;40419;47.438;19.026;2022-08-19T12:26:34;4.20;;;1.63;;
54511;SDS011;40419;47.438;19.026;2022-08-19T12:29:05;2.95;;;2.13;;
54511;SDS011;40419;47.438;19.026;2022-08-19T12:31:36;2.60;;;1.42;;
54511;SDS011;40419;47.438;19.026;2022-08-19T12:34:04;2.70;;;1.67;;
54511;SDS011;40419;47.438;19.026;2022-08-19T12:36:37;1.75;;;1.00;;
54511;SDS011;40419;47.438;19.026;2022-08-19T12:39:06;2.70;;;2.15;;
54511;SDS011;40419;47.438;19.026;2022-08-19T12:41:33;2.60;;;1.85;;
54511;SDS011;40419;47.438;19.026;2022-08-19T12:44:05;2.80;;;2.00;;
54511;SDS011;40419;47.438;19.026;2022-08-19T12:46:33;2.90;;;2.10;;
54511;SDS011;40419;47.438;19.026;2022-08-19T12:49:01;3.27;;;1.90;;
54511;SDS011;40419;47.438;19.026;2022-08-19T12:51:29;3.45;;;2.50;;
54511;SDS011;40419;47.438;19.026;2022-08-19T12:53:56;3.53;;;2.50;;
54511;SDS011;40419;47.438;19.026;2022-08-19T12:56:24;3.30;;;2.25;;
54511;SDS011;40419;47.438;19.026;2022-08-19T12:58:52;2.28;;;1.45;;
54511;SDS011;40419;47.438;19.026;2022-08-19T13:01:20;0.80;;;0.80;;
54511;SDS011;40419;47.438;19.026;2022-08-19T13:03:48;2.33;;;0.90;;
54511;SDS011;40419;47.438;19.026;2022-08-19T13:06:16;1.25;;;0.80;;
54511;SDS011;40419;47.438;19.026;2022-08-19T13:08:42;1.55;;;0.77;;
54511;SDS011;40419;47.438;19.026;2022-08-19T13:11:12;1.98;;;0.80;;
54511;SDS011;40419;47.438;19.026;2022-08-19T13:13:43;1.52;;;1.15;;
54511;SDS011;40419;47.438;19.026;2022-08-19T13:16:13;1.27;;;0.77;;
54511;SDS011;40419;47.438;19.026;2022-08-19T13:18:42;1.55;;;0.75;;
54511;SDS011;40419;47.438;19.026;2022-08-19T13:21:11;1.23;;;0.88;;
54511;SDS011;40419;47.438;19.026;2022-08-19T13:23:38;0.82;;;0.60;;
54511;SDS011;40419;47.438;19.026;2022-08-19T13:26:06;1.30;;;0.82;;
54511;SDS011;40419;47.438;19.026;2022-08-19T13:28:33;1.33;;;1.23;;
54511;SDS011;40419;47.438;19.026;2022-08-19T13:31:18;1.00;;;0.47;;
54511;SDS011;40419;47.438;19.026;2022-08-19T13:34:03;1.05;;;0.80;;
54511;SDS011;40419;47.438;19.026;2022-08-19T13:36:34;1.30;;;0.73;;
54511;SDS011;40419;47.438;19.026;2022-08-19T13:39:00;1.15;;;0.95;;
54511;SDS011;40419;47.438;19.026;2022-08-19T13:41:29;1.15;;;0.82;;
54511;SDS011;40419;47.438;19.026;2022-08-19T13:43:55;0.77;;;0.70;;
54511;SDS011;40419;47.438;19.026;2022-08-19T13:46:21;2.22;;;0.75;;
54511;SDS011;40419;47.438;19.026;2022-08-19T13:48:49;1.58;;;0.98;;
54511;SDS011;40419;47.438;19.026;2022-08-19T13:51:21;1.65;;;0.85;;
54511;SDS011;40419;47.438;19.026;2022-08-19T13:53:50;1.05;;;0.70;;
54511;SDS011;40419;47.438;19.026;2022-08-19T13:56:19;1.08;;;0.63;;
54511;SDS011;40419;47.438;19.026;2022-08-19T13:58:45;5.20;;;0.85;;
54511;SDS011;40419;47.438;19.026;2022-08-19T14:01:12;0.73;;;0.68;;
54511;SDS011;40419;47.438;19.026;2022-08-19T14:03:44;4.80;;;0.90;;
54511;SDS011;40419;47.438;19.026;2022-08-19T14:06:09;0.77;;;0.57;;
54511;SDS011;40419;47.438;19.026;2022-08-19T14:08:39;0.35;;;0.35;;
54511;SDS011;40419;47.438;19.026;2022-08-19T14:11:10;0.77;;;0.63;;
54511;SDS011;40419;47.438;19.026;2022-08-19T14:13:35;0.98;;;0.60;;
54511;SDS011;40419;47.438;19.026;2022-08-19T14:16:03;0.45;;;0.45;;
54511;SDS011;40419;47.438;19.026;2022-08-19T14:18:34;0.47;;;0.43;;
54511;SDS011;40419;47.438;19.026;2022-08-19T14:21:02;0.80;;;0.70;;
54511;SDS011;40419;47.438;19.026;2022-08-19T14:23:29;0.47;;;0.47;;
54511;SDS011;40419;47.438;19.026;2022-08-19T14:26:08;0.13;;;0.13;;
54511;SDS011;40419;47.438;19.026;2022-08-19T14:28:41;0.45;;;0.35;;
54511;SDS011;40419;47.438;19.026;2022-08-19T14:31:14;0.65;;;0.47;;
54511;SDS011;40419;47.438;19.026;2022-08-19T14:33:50;0.95;;;0.63;;
54511;SDS011;40419;47.438;19.026;2022-08-19T14:36:18;0.80;;;0.50;;
54511;SDS011;40419;47.438;19.026;2022-08-19T14:38:47;0.17;;;0.17;;
54511;SDS011;40419;47.438;19.026;2022-08-19T14:41:17;0.50;;;0.40;;
54511;SDS011;40419;47.438;19.026;2022-08-19T14:43:51;0.28;;;0.28;;
54511;SDS011;40419;47.438;19.026;2022-08-19T14:46:21;0.63;;;0.25;;
54511;SDS011;40419;47.438;19.026;2022-08-19T14:48:56;1.48;;;0.20;;
54511;SDS011;40419;47.438;19.026;2022-08-19T14:51:25;0.43;;;0.20;;
54511;SDS011;40419;47.438;19.026;2022-08-19T14:53:56;0.30;;;0.00;;
54511;SDS011;40419;47.438;19.026;2022-08-19T14:56:25;0.55;;;0.20;;
54511;SDS011;40419;47.438;19.026;2022-08-19T14:58:55;7.13;;;0.85;;
54511;SDS011;40419;47.438;19.026;2022-08-19T15:01:26;0.63;;;0.35;;
54511;SDS011;40419;47.438;19.026;2022-08-19T15:03:52;0.20;;;0.00;;
54511;SDS011;40419;47.438;19.026;2022-08-19T15:06:20;0.25;;;0.10;;
54511;SDS011;40419;47.438;19.026;2022-08-19T15:08:47;0.22;;;0.20;;
54511;SDS011;40419;47.438;19.026;2022-08-19T15:11:20;1.73;;;0.43;;
54511;SDS011;40419;47.438;19.026;2022-08-19T15:13:51;0.17;;;0.17;;
54511;SDS011;40419;47.438;19.026;2022-08-19T15:16:18;0.10;;;0.10;;
54511;SDS011;40419;47.438;19.026;2022-08-19T15:18:45;0.30;;;0.13;;